createdAt,value
2019-02-22T00:06:23.827Z,12.90
2019-02-22T00:11:35.703Z,12.90
2019-02-22T00:16:47.493Z,12.90
2019-02-22T00:21:59.564Z,12.80
2019-02-22T00:27:11.640Z,12.80
2019-02-22T00:32:22.912Z,12.80
2019-02-22T00:37:35.990Z,12.70
2019-02-22T00:42:47.337Z,12.60
2019-02-22T00:47:58.894Z,12.50
2019-02-22T00:53:11.327Z,12.40
2019-02-22T00:58:23.563Z,12.40
2019-02-22T01:03:35.167Z,12.30
2019-02-22T01:08:47.257Z,12.20
2019-02-22T01:13:59.772Z,12.20
2019-02-22T01:19:11.167Z,12.20
2019-02-22T01:24:23.263Z,12.20
2019-02-22T01:29:34.648Z,12.30
2019-02-22T01:34:45.968Z,12.30
2019-02-22T01:39:57.539Z,12.40
2019-02-22T01:45:08.895Z,12.40
2019-02-22T01:50:20.865Z,12.40
2019-02-22T01:55:32.828Z,12.40
2019-02-22T02:00:44.167Z,12.30
2019-02-22T02:05:56.121Z,12.30
2019-02-22T02:11:07.874Z,12.30
2019-02-22T02:16:19.747Z,12.40
2019-02-22T02:21:31.568Z,12.30
2019-02-22T02:26:43.523Z,12.30
2019-02-22T02:31:55.032Z,12.40
2019-02-22T02:37:06.781Z,12.40
2019-02-22T02:42:22.419Z,12.40
2019-02-22T02:47:34.283Z,12.30
2019-02-22T02:52:46.287Z,12.20
2019-02-22T02:57:58.047Z,12.30
2019-02-22T03:03:09.449Z,12.30
2019-02-22T03:08:20.196Z,12.40
2019-02-22T03:13:39.345Z,12.40
2019-02-22T03:18:51.122Z,12.40
2019-02-22T03:24:03.630Z,12.40
2019-02-22T03:29:15.791Z,12.40
2019-02-22T03:34:27.961Z,12.40
2019-02-22T03:39:40.044Z,12.30
2019-02-22T03:44:51.860Z,12.30
2019-02-22T03:50:03.659Z,12.30
2019-02-22T03:55:15.543Z,12.30
2019-02-22T04:00:27.499Z,12.30
2019-02-22T04:05:39.652Z,12.30
2019-02-22T04:10:51.659Z,12.30
2019-02-22T04:16:03.612Z,12.20
2019-02-22T04:21:15.464Z,12.20
2019-02-22T04:26:26.866Z,12.10
2019-02-22T04:31:38.213Z,12.10
2019-02-22T04:36:48.434Z,12.10
2019-02-22T04:42:00.059Z,12.10
2019-02-22T04:47:11.336Z,11.90
2019-02-22T04:52:23.343Z,11.80
2019-02-22T04:57:35.084Z,11.50
2019-02-22T05:02:34.754Z,11.40
2019-02-22T05:07:53.643Z,11.10
2019-02-22T05:13:05.615Z,11.10
2019-02-22T05:18:17.369Z,11.00
2019-02-22T05:23:29.135Z,11.10
2019-02-22T05:28:40.511Z,11.20
2019-02-22T05:33:52.289Z,11.30
2019-02-22T05:39:04.878Z,11.40
2019-02-22T05:44:16.672Z,11.40
2019-02-22T05:49:28.971Z,11.40
2019-02-22T05:54:40.524Z,11.30
2019-02-22T05:59:52.014Z,11.30
2019-02-22T06:05:04.095Z,11.10
2019-02-22T06:10:15.668Z,11.00
2019-02-22T06:15:27.552Z,10.90
2019-02-22T06:20:39.087Z,10.90
2019-02-22T06:25:49.280Z,10.90
2019-02-22T06:31:01.277Z,10.70
2019-02-22T06:36:13.177Z,10.70
2019-02-22T06:41:25.236Z,10.60
2019-02-22T06:46:37.004Z,10.70
2019-02-22T06:51:48.488Z,10.40
2019-02-22T06:57:00.207Z,10.20
2019-02-22T07:02:12.063Z,10.00
2019-02-22T07:07:23.545Z,9.80
2019-02-22T07:12:38.399Z,9.70
2019-02-22T07:17:49.892Z,9.70
2019-02-22T07:23:02.484Z,9.70
2019-02-22T07:28:13.923Z,9.60
2019-02-22T07:33:25.678Z,9.70
2019-02-22T07:38:37.739Z,9.70
2019-02-22T07:43:49.592Z,9.90
2019-02-22T07:49:00.910Z,9.90
2019-02-22T07:54:12.650Z,9.80
2019-02-22T07:59:24.624Z,9.80
2019-02-22T08:04:37.012Z,9.80
2019-02-22T08:09:48.719Z,9.70
2019-02-22T08:15:00.567Z,9.60
2019-02-22T08:20:12.612Z,9.30
2019-02-22T08:25:24.824Z,9.10
2019-02-22T08:30:36.320Z,9.20
2019-02-22T08:35:48.536Z,9.40
2019-02-22T08:41:00.400Z,9.10
2019-02-22T08:46:11.710Z,9.00
2019-02-22T08:51:23.134Z,9.00
2019-02-22T08:56:35.600Z,9.20
2019-02-22T09:01:47.126Z,9.30
2019-02-22T09:06:59.271Z,9.20
2019-02-22T09:12:12.380Z,9.40
2019-02-22T09:17:24.191Z,9.20
2019-02-22T09:22:36.208Z,9.20
2019-02-22T09:27:48.303Z,9.20
2019-02-22T09:33:00.687Z,9.00
2019-02-22T09:38:12.583Z,8.80
2019-02-22T09:43:24.613Z,8.90
2019-02-22T09:48:35.935Z,8.80
2019-02-22T09:53:47.635Z,8.90
2019-02-22T09:59:00.719Z,9.10
2019-02-22T10:04:13.022Z,9.30
2019-02-22T10:09:25.311Z,9.50
2019-02-22T10:14:37.275Z,9.70
2019-02-22T10:19:49.187Z,9.70
2019-02-22T10:25:00.992Z,9.80
2019-02-22T10:30:13.034Z,9.70
2019-02-22T10:35:25.079Z,9.70
2019-02-22T10:40:39.235Z,9.90
2019-02-22T10:45:50.223Z,9.90
2019-02-22T10:51:02.317Z,9.90
2019-02-22T10:56:14.378Z,10.00
2019-02-22T11:01:26.279Z,10.10
2019-02-22T11:06:38.031Z,10.30
2019-02-22T11:11:50.074Z,10.50
2019-02-22T11:17:02.191Z,10.60
2019-02-22T11:22:13.681Z,10.60
2019-02-22T11:27:25.552Z,10.90
2019-02-22T11:32:37.668Z,10.90
2019-02-22T11:37:49.564Z,10.70
2019-02-22T11:43:01.523Z,10.90
2019-02-22T11:48:12.807Z,11.20
2019-02-22T11:53:24.599Z,11.40
2019-02-22T11:58:36.571Z,11.60
2019-02-22T12:03:48.191Z,11.70
2019-02-22T12:09:00.263Z,11.70
2019-02-22T12:14:12.327Z,11.90
2019-02-22T12:19:24.500Z,11.90
2019-02-22T12:24:36.328Z,11.60
2019-02-22T12:29:48.443Z,11.50
2019-02-22T12:34:59.699Z,11.40
2019-02-22T12:40:11.195Z,11.20
2019-02-22T12:45:22.715Z,10.90
2019-02-22T12:50:34.772Z,11.00
2019-02-22T12:55:47.062Z,11.10
2019-02-22T13:00:58.748Z,11.20
2019-02-22T13:06:10.343Z,11.20
2019-02-22T13:11:22.372Z,11.00
2019-02-22T13:16:34.248Z,10.80
2019-02-22T13:21:46.068Z,10.80
2019-02-22T13:26:57.983Z,10.90
2019-02-22T13:32:09.824Z,11.00
2019-02-22T13:37:19.812Z,11.10
2019-02-22T13:42:38.828Z,11.10
2019-02-22T13:47:50.076Z,11.10
2019-02-22T13:53:02.107Z,11.20
2019-02-22T13:58:13.504Z,11.00
2019-02-22T14:03:24.947Z,11.00
2019-02-22T14:08:37.331Z,11.20
2019-02-22T14:13:49.855Z,11.20
2019-02-22T14:19:01.666Z,11.30
2019-02-22T14:24:13.759Z,11.30
2019-02-22T14:29:23.709Z,11.30
2019-02-22T14:34:42.588Z,11.10
2019-02-22T14:40:02.522Z,11.00
2019-02-22T14:45:07.660Z,10.80
2019-02-22T14:50:20.136Z,10.70
2019-02-22T14:55:32.240Z,11.00
2019-02-22T15:00:44.123Z,11.20
2019-02-22T15:05:56.159Z,11.20
2019-02-22T15:11:07.712Z,11.20
2019-02-22T15:16:44.864Z,11.10
2019-02-22T15:21:56.523Z,11.20
2019-02-22T15:27:08.111Z,11.20
2019-02-22T15:32:19.547Z,11.20
2019-02-22T15:37:31.436Z,11.30
2019-02-22T15:42:42.873Z,11.40
2019-02-22T15:47:56.565Z,11.40
2019-02-22T15:53:08.360Z,11.30
2019-02-22T15:58:20.467Z,11.20
2019-02-22T16:03:51.648Z,11.10
2019-02-22T16:09:04.759Z,11.10
2019-02-22T16:14:18.171Z,11.10
2019-02-22T16:19:30.259Z,11.10
2019-02-22T16:24:40.227Z,11.00
2019-02-22T16:29:59.208Z,11.00
2019-02-22T16:35:12.052Z,11.00
2019-02-22T16:40:24.211Z,11.00
2019-02-22T16:45:36.237Z,11.10
2019-02-22T16:50:48.671Z,11.10
2019-02-22T16:56:00.179Z,11.10
2019-02-22T17:01:12.048Z,11.10
2019-02-22T17:06:24.192Z,11.10
2019-02-22T17:11:36.323Z,11.10
2019-02-22T17:16:48.223Z,11.00
2019-02-22T17:22:00.375Z,11.00
2019-02-22T17:27:12.503Z,11.00
2019-02-22T17:32:24.472Z,10.90
2019-02-22T17:37:36.290Z,10.80
2019-02-22T17:42:48.480Z,10.80
2019-02-22T17:48:00.667Z,10.70
2019-02-22T17:53:12.491Z,10.60
2019-02-22T17:58:24.642Z,10.60
2019-02-22T18:03:36.575Z,10.50
2019-02-22T18:08:47.967Z,10.40
2019-02-22T18:14:00.601Z,10.40
2019-02-22T18:19:12.901Z,10.40
2019-02-22T18:24:24.843Z,10.30
2019-02-22T18:29:36.878Z,10.30
2019-02-22T18:34:48.917Z,10.20
2019-02-22T18:40:00.736Z,10.20
2019-02-22T18:45:12.279Z,10.10
2019-02-22T18:50:23.712Z,10.10
2019-02-22T18:55:35.814Z,10.00
2019-02-22T19:00:48.502Z,9.90
2019-02-22T19:06:00.392Z,9.90
2019-02-22T19:11:11.967Z,9.80
2019-02-22T19:16:23.899Z,9.80
2019-02-22T19:21:35.259Z,9.70
2019-02-22T19:26:46.472Z,9.90
2019-02-22T19:31:58.328Z,9.80
2019-02-22T19:37:10.489Z,9.70
2019-02-22T19:42:22.145Z,9.60
2019-02-22T19:47:41.395Z,9.50
2019-02-22T19:52:47.153Z,9.40
2019-02-22T19:58:00.268Z,9.30
2019-02-22T20:03:11.499Z,9.30
2019-02-22T20:08:23.457Z,9.20
2019-02-22T20:13:34.660Z,9.20
2019-02-22T20:18:46.639Z,9.20
2019-02-22T20:23:58.485Z,9.20
2019-02-22T20:29:10.824Z,9.10
2019-02-22T20:34:22.737Z,9.10
2019-02-22T20:39:34.815Z,9.00
2019-02-22T20:44:46.571Z,9.00
2019-02-22T20:49:58.253Z,9.00
2019-02-22T20:55:09.536Z,9.00
2019-02-22T21:00:21.788Z,8.90
2019-02-22T21:05:33.373Z,8.90
2019-02-22T21:10:45.203Z,8.80
2019-02-22T21:15:56.791Z,8.80
2019-02-22T21:21:09.198Z,8.80
2019-02-22T21:26:19.188Z,8.70
2019-02-22T21:31:31.024Z,8.70
2019-02-22T21:36:42.352Z,8.70
2019-02-22T21:41:54.519Z,8.60
2019-02-22T21:47:07.603Z,8.60
2019-02-22T21:52:19.239Z,8.60
2019-02-22T21:57:31.307Z,8.60
2019-02-22T22:02:43.166Z,8.60
2019-02-22T22:07:54.586Z,8.70
2019-02-22T22:13:06.287Z,8.70
2019-02-22T22:18:18.232Z,8.60
2019-02-22T22:23:29.711Z,8.50
2019-02-22T22:28:41.455Z,8.50
2019-02-22T22:33:53.107Z,8.50
2019-02-22T22:39:04.984Z,8.50
2019-02-22T22:44:15.412Z,8.50
2019-02-22T22:49:25.411Z,8.40
2019-02-22T22:54:37.519Z,8.30
2019-02-22T22:59:49.563Z,8.30
2019-02-22T23:05:00.889Z,8.30
2019-02-22T23:10:12.654Z,8.30
2019-02-22T23:15:24.247Z,8.30
2019-02-22T23:20:35.959Z,8.20
2019-02-22T23:25:47.655Z,8.20
2019-02-22T23:30:59.546Z,8.10
2019-02-22T23:36:11.507Z,8.10
2019-02-22T23:41:23.474Z,8.10
2019-02-22T23:46:35.615Z,8.10
2019-02-22T23:51:46.971Z,8.00
2019-02-22T23:56:59.376Z,8.00
